aviador You're here:

SCCH Decoded Metar

CHILLAN in CHILE
Report Time2018-07-22 02:00:00
UTC Time2018-07-22 02:28:43
Flight Rules mvfr MVFR
Wind020° at 06 kt
W.Decomp.*RWY 04: 5.4 kt HW 2.5 kt LCW
W.Rank020° ranks 10
Current wind is below 020° avg. (8.0)
Visibility9999 m
Phenomena:N/A
Clouds:Overcast 018 Hf
Ceiling1,800 ft
Temp05°C (ISA -9)
Dew Point05°C (100% RH)
AAT1.7°C
QNH1020 hPa
Density Alt-722 ft
Elevation486 ft
Report Wrong Elevation
Raw Report
SCCH 220200Z AUTO 02006KT 9999 OVC018 05/05 Q1020 RERA=

Extra information for SCCH:More info

Metar Taf Metar & Taf Last 4 Metars F.Rules Stats Wind Profile Meteogram Temp Stats Airport Information Weather charts Add Link Nearby VenuesMetar ALERT Operation Metar Decoded Social comments